Time,TemperatureF,DewpointF,PressureIn,WindDirection,WindDirectionDegrees,WindSpeedMPH,WindSpeedGustMPH,Humidity,HourlyPrecipIn,Conditions,Clouds,dailyrainin,SoftwareType,DateUTC
2013-02-06 00:06:00,50.3,29.0,29.87,WNW,283,0.0,1.0,44,0.00,,,0.00,weatherlink.com 1.10,2013-02-06 06:06:00,
2013-02-06 00:21:00,51.2,29.0,29.86,WNW,283,0.0,2.0,42,0.00,,,0.00,weatherlink.com 1.10,2013-02-06 06:21:00,
2013-02-06 00:36:00,50.6,29.0,29.86,WNW,283,0.0,2.0,44,0.00,,,0.00,weatherlink.com 1.10,2013-02-06 06:36:00,
2013-02-06 00:51:00,51.4,29.0,29.85,WNW,283,0.0,2.0,42,0.00,,,0.00,weatherlink.com 1.10,2013-02-06 06:51:00,
2013-02-06 01:06:00,47.9,28.0,29.85,WNW,283,0.0,0.0,47,0.00,,,0.00,weatherlink.com 1.10,2013-02-06 07:06:00,
2013-02-06 01:21:00,47.5,29.0,29.85,WNW,283,0.0,0.0,49,0.00,,,0.00,weatherlink.com 1.10,2013-02-06 07:21:00,
2013-02-06 01:36:00,48.4,29.0,29.85,WNW,283,0.0,2.0,47,0.00,,,0.00,weatherlink.com 1.10,2013-02-06 07:36:00,
2013-02-06 01:51:00,50.1,29.0,29.85,WNW,283,0.0,2.0,45,0.00,,,0.00,weatherlink.com 1.10,2013-02-06 07:51:00,
2013-02-06 02:06:00,50.4,29.0,29.85,WNW,283,0.0,0.0,44,0.00,,,0.00,weatherlink.com 1.10,2013-02-06 08:06:00,
2013-02-06 02:21:00,49.5,29.0,29.85,WNW,283,0.0,1.0,45,0.00,,,0.00,weatherlink.com 1.10,2013-02-06 08:21:00,
2013-02-06 02:36:00,47.7,29.0,29.85,WNW,283,0.0,2.0,48,0.00,,,0.00,weatherlink.com 1.10,2013-02-06 08:36:00,
2013-02-06 02:51:00,47.7,29.0,29.84,WNW,283,0.0,1.0,48,0.00,,,0.00,weatherlink.com 1.10,2013-02-06 08:51:00,
2013-02-06 03:06:00,47.4,28.0,29.84,WNW,283,0.0,0.0,48,0.00,,,0.00,weatherlink.com 1.10,2013-02-06 09:06:00,
2013-02-06 03:21:00,49.6,29.0,29.84,WNW,283,0.0,2.0,45,0.00,,,0.00,weatherlink.com 1.10,2013-02-06 09:21:00,
2013-02-06 03:36:00,50.5,29.0,29.84,WNW,283,0.0,2.0,44,0.00,,,0.00,weatherlink.com 1.10,2013-02-06 09:36:00,
2013-02-06 03:51:00,48.9,28.0,29.84,WNW,283,1.0,3.0,45,0.00,,,0.00,weatherlink.com 1.10,2013-02-06 09:51:00,
2013-02-06 04:06:00,48.8,29.0,29.84,WNW,283,0.0,0.0,46,0.00,,,0.00,weatherlink.com 1.10,2013-02-06 10:06:00,
2013-02-06 04:21:00,49.6,29.0,29.84,WNW,283,0.0,1.0,46,0.00,,,0.00,weatherlink.com 1.10,2013-02-06 10:21:00,
2013-02-06 04:36:00,51.3,29.0,29.84,WNW,283,0.0,1.0,43,0.00,,,0.00,weatherlink.com 1.10,2013-02-06 10:36:00,
2013-02-06 04:51:00,48.6,30.0,29.84,WNW,283,0.0,2.0,48,0.00,,,0.00,weatherlink.com 1.10,2013-02-06 10:51:00,
2013-02-06 05:06:00,49.2,30.0,29.84,WNW,283,0.0,2.0,48,0.00,,,0.00,weatherlink.com 1.10,2013-02-06 11:06:00,
2013-02-06 05:21:00,48.3,30.0,29.84,WNW,283,0.0,1.0,49,0.00,,,0.00,weatherlink.com 1.10,2013-02-06 11:21:00,
2013-02-06 05:36:00,49.1,30.0,29.84,WNW,283,0.0,2.0,48,0.00,,,0.00,weatherlink.com 1.10,2013-02-06 11:36:00,
2013-02-06 05:51:00,50.1,30.0,29.83,WNW,283,0.0,2.0,46,0.00,,,0.00,weatherlink.com 1.10,2013-02-06 11:51:00,
2013-02-06 06:06:00,49.4,30.0,29.83,WNW,283,0.0,1.0,47,0.00,,,0.00,weatherlink.com 1.10,2013-02-06 12:06:00,
2013-02-06 06:21:00,49.0,30.0,29.83,WNW,283,0.0,1.0,48,0.00,,,0.00,weatherlink.com 1.10,2013-02-06 12:21:00,
2013-02-06 06:36:00,49.6,30.0,29.83,WNW,283,0.0,3.0,47,0.00,,,0.00,weatherlink.com 1.10,2013-02-06 12:36:00,
2013-02-06 06:51:00,49.6,30.0,29.83,WNW,283,2.0,3.0,47,0.00,,,0.00,weatherlink.com 1.10,2013-02-06 12:51:00,
2013-02-06 07:06:00,48.7,31.0,29.84,WNW,283,0.0,3.0,50,0.00,,,0.00,weatherlink.com 1.10,2013-02-06 13:06:00,
2013-02-06 07:21:00,50.1,30.0,29.84,WNW,283,2.0,4.0,47,0.00,,,0.00,weatherlink.com 1.10,2013-02-06 13:21:00,
2013-02-06 07:36:00,49.2,30.0,29.84,WNW,283,0.0,1.0,48,0.00,,,0.00,weatherlink.com 1.10,2013-02-06 13:36:00,
2013-02-06 07:51:00,48.6,30.0,29.84,WNW,283,0.0,1.0,49,0.00,,,0.00,weatherlink.com 1.10,2013-02-06 13:51:00,
2013-02-06 08:06:00,50.6,30.0,29.85,WNW,283,1.0,5.0,46,0.00,,,0.00,weatherlink.com 1.10,2013-02-06 14:06:00,
2013-02-06 08:21:00,51.3,30.0,29.85,WNW,283,0.0,1.0,44,0.00,,,0.00,weatherlink.com 1.10,2013-02-06 14:21:00,
2013-02-06 08:36:00,50.9,31.0,29.85,WNW,283,1.0,2.0,46,0.00,,,0.00,weatherlink.com 1.10,2013-02-06 14:36:00,
2013-02-06 08:52:00,53.4,31.0,29.85,WNW,283,1.0,2.0,43,0.00,,,0.00,weatherlink.com 1.10,2013-02-06 14:52:00,
2013-02-06 09:06:00,53.3,32.0,29.86,WNW,283,0.0,0.0,44,0.00,,,0.00,weatherlink.com 1.10,2013-02-06 15:06:00,
2013-02-06 09:21:00,55.5,33.0,29.86,WNW,283,0.0,0.0,43,0.00,,,0.00,weatherlink.com 1.10,2013-02-06 15:21:00,
2013-02-06 09:36:00,56.6,32.0,29.86,WNW,283,0.0,0.0,40,0.00,,,0.00,weatherlink.com 1.10,2013-02-06 15:36:00,
2013-02-06 09:52:00,58.7,33.0,29.86,WNW,283,0.0,0.0,38,0.00,,,0.00,weatherlink.com 1.10,2013-02-06 15:52:00,
2013-02-06 10:07:00,60.4,33.0,29.86,WNW,283,1.0,2.0,36,0.00,,,0.00,weatherlink.com 1.10,2013-02-06 16:07:00,
2013-02-06 10:22:00,61.9,32.0,29.86,WNW,283,0.0,2.0,33,0.00,,,0.00,weatherlink.com 1.10,2013-02-06 16:22:00,
2013-02-06 10:37:00,63.8,31.0,29.86,WNW,283,0.0,4.0,29,0.00,,,0.00,weatherlink.com 1.10,2013-02-06 16:37:00,
2013-02-06 11:07:00,65.5,32.0,29.85,WNW,283,3.0,9.0,29,0.00,,,0.00,weatherlink.com 1.10,2013-02-06 17:07:00,
2013-02-06 11:22:00,66.9,33.0,29.84,West,276,2.0,9.0,28,0.00,,,0.00,weatherlink.com 1.10,2013-02-06 17:22:00,
2013-02-06 11:37:00,68.2,35.0,29.84,SW,221,5.0,10.0,29,0.00,,,0.00,weatherlink.com 1.10,2013-02-06 17:37:00,
2013-02-06 11:52:00,68.3,34.0,29.84,SW,235,4.0,8.0,28,0.00,,,0.00,weatherlink.com 1.10,2013-02-06 17:52:00,
2013-02-06 12:07:00,68.4,34.0,29.82,South,174,4.0,9.0,28,0.00,,,0.00,weatherlink.com 1.10,2013-02-06 18:07:00,
2013-02-06 12:23:00,68.4,34.0,29.82,SE,143,2.0,7.0,28,0.00,,,0.00,weatherlink.com 1.10,2013-02-06 18:23:00,
2013-02-06 12:38:00,70.1,34.0,29.81,SSW,195,3.0,7.0,26,0.00,,,0.00,weatherlink.com 1.10,2013-02-06 18:38:00,
2013-02-06 12:53:00,69.2,33.0,29.80,SW,225,2.0,10.0,26,0.00,,,0.00,weatherlink.com 1.10,2013-02-06 18:53:00,
2013-02-06 13:08:00,68.8,32.0,29.79,SSE,167,2.0,7.0,26,0.00,,,0.00,weatherlink.com 1.10,2013-02-06 19:08:00,
2013-02-06 13:22:00,69.0,32.0,29.79,West,261,5.0,12.0,25,0.00,,,0.00,weatherlink.com 1.10,2013-02-06 19:22:00,
2013-02-06 13:37:00,70.4,33.0,29.78,West,264,8.0,15.0,25,0.00,,,0.00,weatherlink.com 1.10,2013-02-06 19:37:00,
2013-02-06 13:52:00,68.5,32.0,29.77,West,267,0.0,14.0,26,0.00,,,0.00,weatherlink.com 1.10,2013-02-06 19:52:00,
2013-02-06 14:07:00,68.4,31.0,29.77,West,265,7.0,11.0,25,0.00,,,0.00,weatherlink.com 1.10,2013-02-06 20:07:00,
2013-02-06 14:23:00,71.1,32.0,29.76,West,265,6.0,13.0,24,0.00,,,0.00,weatherlink.com 1.10,2013-02-06 20:23:00,
2013-02-06 14:38:00,70.5,31.0,29.75,ESE,119,2.0,14.0,23,0.00,,,0.00,weatherlink.com 1.10,2013-02-06 20:38:00,
2013-02-06 14:53:00,70.0,33.0,29.75,WSW,254,13.0,16.0,25,0.00,,,0.00,weatherlink.com 1.10,2013-02-06 20:53:00,
2013-02-06 15:08:00,70.9,33.0,29.74,West,268,5.0,14.0,25,0.00,,,0.00,weatherlink.com 1.10,2013-02-06 21:08:00,
2013-02-06 15:23:00,69.8,32.0,29.73,SE,144,0.0,9.0,25,0.00,,,0.00,weatherlink.com 1.10,2013-02-06 21:23:00,
2013-02-06 15:38:00,71.9,33.0,29.73,WSW,250,13.0,14.0,24,0.00,,,0.00,weatherlink.com 1.10,2013-02-06 21:38:00,
2013-02-06 15:53:00,70.8,32.0,29.73,SSE,155,2.0,19.0,24,0.00,,,0.00,weatherlink.com 1.10,2013-02-06 21:53:00,
2013-02-06 16:08:00,69.4,32.0,29.73,West,261,0.0,10.0,25,0.00,,,0.00,weatherlink.com 1.10,2013-02-06 22:08:00,
2013-02-06 16:23:00,71.3,33.0,29.73,SE,130,3.0,11.0,24,0.00,,,0.00,weatherlink.com 1.10,2013-02-06 22:23:00,
2013-02-06 16:38:00,70.8,31.0,29.74,SW,217,2.0,14.0,23,0.00,,,0.00,weatherlink.com 1.10,2013-02-06 22:38:00,
2013-02-06 16:53:00,68.8,30.0,29.73,East,101,8.0,11.0,24,0.00,,,0.00,weatherlink.com 1.10,2013-02-06 22:53:00,
2013-02-06 17:08:00,70.1,32.0,29.74,WSW,253,0.0,12.0,24,0.00,,,0.00,weatherlink.com 1.10,2013-02-06 23:08:00,
2013-02-06 17:23:00,69.9,31.0,29.74,West,263,4.0,14.0,24,0.00,,,0.00,weatherlink.com 1.10,2013-02-06 23:23:00,
2013-02-06 17:38:00,69.2,31.0,29.75,West,264,3.0,10.0,24,0.00,,,0.00,weatherlink.com 1.10,2013-02-06 23:38:00,
2013-02-06 17:53:00,67.7,31.0,29.75,ESE,113,7.0,11.0,25,0.00,,,0.00,weatherlink.com 1.10,2013-02-06 23:53:00,
2013-02-06 18:08:00,66.9,30.0,29.75,SE,132,1.0,10.0,25,0.00,,,0.00,weatherlink.com 1.10,2013-02-07 00:08:00,
2013-02-06 18:23:00,66.5,30.0,29.75,SSE,157,1.0,7.0,25,0.00,,,0.00,weatherlink.com 1.10,2013-02-07 00:23:00,
2013-02-06 18:38:00,65.6,30.0,29.75,SSE,165,1.0,4.0,26,0.00,,,0.00,weatherlink.com 1.10,2013-02-07 00:38:00,
2013-02-06 18:53:00,64.1,29.0,29.76,SSE,165,1.0,3.0,27,0.00,,,0.00,weatherlink.com 1.10,2013-02-07 00:53:00,
2013-02-06 19:08:00,62.9,30.0,29.77,SSE,165,0.0,4.0,29,0.00,,,0.00,weatherlink.com 1.10,2013-02-07 01:08:00,
2013-02-06 19:23:00,61.9,30.0,29.77,SSE,165,0.0,2.0,30,0.00,,,0.00,weatherlink.com 1.10,2013-02-07 01:23:00,
2013-02-06 19:38:00,61.3,31.0,29.78,SSE,165,0.0,2.0,32,0.00,,,0.00,weatherlink.com 1.10,2013-02-07 01:38:00,
2013-02-06 20:08:00,59.8,30.0,29.79,SSE,165,0.0,2.0,33,0.00,,,0.00,weatherlink.com 1.10,2013-02-07 02:08:00,
2013-02-06 20:23:00,58.5,30.0,29.79,SSE,165,0.0,1.0,34,0.00,,,0.00,weatherlink.com 1.10,2013-02-07 02:23:00,
2013-02-06 20:38:00,58.7,30.0,29.80,SSE,165,1.0,3.0,34,0.00,,,0.00,weatherlink.com 1.10,2013-02-07 02:38:00,
2013-02-06 20:53:00,58.6,30.0,29.80,SSE,165,0.0,4.0,34,0.00,,,0.00,weatherlink.com 1.10,2013-02-07 02:53:00,
2013-02-06 21:23:00,57.3,30.0,29.81,SSE,165,0.0,2.0,36,0.00,,,0.00,weatherlink.com 1.10,2013-02-07 03:23:00,
2013-02-06 21:38:00,57.4,30.0,29.81,SSE,165,0.0,2.0,36,0.00,,,0.00,weatherlink.com 1.10,2013-02-07 03:38:00,
2013-02-06 21:53:00,56.9,31.0,29.81,SSE,165,0.0,0.0,37,0.00,,,0.00,weatherlink.com 1.10,2013-02-07 03:53:00,
2013-02-06 22:08:00,55.5,31.0,29.81,SSE,165,0.0,3.0,39,0.00,,,0.00,weatherlink.com 1.10,2013-02-07 04:08:00,
2013-02-06 22:23:00,56.7,31.0,29.81,SSE,165,0.0,1.0,38,0.00,,,0.00,weatherlink.com 1.10,2013-02-07 04:23:00,
2013-02-06 22:38:00,55.9,31.0,29.82,SSE,165,0.0,2.0,39,0.00,,,0.00,weatherlink.com 1.10,2013-02-07 04:38:00,
2013-02-06 22:53:00,55.6,31.0,29.82,SSE,165,0.0,2.0,40,0.00,,,0.00,weatherlink.com 1.10,2013-02-07 04:53:00,
2013-02-06 23:08:00,54.9,31.0,29.82,SSE,165,0.0,2.0,41,0.00,,,0.00,weatherlink.com 1.10,2013-02-07 05:08:00,
2013-02-06 23:23:00,55.5,31.0,29.82,SSE,165,0.0,2.0,40,0.00,,,0.00,weatherlink.com 1.10,2013-02-07 05:23:00,
2013-02-06 23:38:00,53.7,31.0,29.82,SSE,165,1.0,1.0,43,0.00,,,0.00,weatherlink.com 1.10,2013-02-07 05:38:00,
2013-02-06 23:53:00,53.3,32.0,29.83,SSE,165,0.0,1.0,44,0.00,,,0.00,weatherlink.com 1.10,2013-02-07 05:53:00,